Time;durP1;ratioP1;P1;durP2;ratioP2;P2;SDS_P1;SDS_P2;PMS_P1;PMS_P2;Temp;Humidity;BMP_temperature;BMP_pressure;BME280_temperature;BME280_humidity;BME280_pressure;Samples;Min_cycle;Max_cycle;Signal;HPM_P1;HPM_P2
2023/12/31 00:01:38;;;;;;;23.57;10.60;;;4.40;99.90;;;;;;10374318;28;20232;-83
2023/12/31 00:06:59;;;;;;;19.07;7.43;;;4.40;99.90;;;;;;10387991;28;20217;-83
2023/12/31 00:12:22;;;;;;;9.10;3.23;;;4.40;99.90;;;;;;10387654;28;20229;-81
2023/12/31 00:17:43;;;;;;;8.40;2.80;;;4.40;1.00;;;;;;10401182;28;20422;-81
2023/12/31 00:23:04;;;;;;;7.87;2.30;;;4.40;1.00;;;;;;10423138;28;20246;-81
2023/12/31 00:28:26;;;;;;;8.03;2.10;;;4.40;99.90;;;;;;10414065;28;20224;-82
2023/12/31 00:33:50;;;;;;;6.43;2.27;;;4.40;1.00;;;;;;10428046;28;20523;-83
2023/12/31 00:39:11;;;;;;;6.03;2.20;;;4.50;1.00;;;;;;10441574;28;20498;-83
2023/12/31 00:44:33;;;;;;;5.23;2.17;;;4.50;1.00;;;;;;10441326;28;20237;-80
2023/12/31 00:49:54;;;;;;;6.27;2.30;;;4.50;1.00;;;;;;10402913;28;20277;-83
2023/12/31 00:55:15;;;;;;;11.70;2.10;;;4.50;1.00;;;;;;10412909;28;20250;-82
2023/12/31 01:00:38;;;;;;;4.83;2.13;;;4.50;1.00;;;;;;10385393;28;20562;-82
2023/12/31 01:06:06;;;;;;;11.83;2.90;;;4.50;1.00;;;;;;10385760;28;20432;-82
2023/12/31 01:11:27;;;;;;;6.13;2.40;;;4.50;1.00;;;;;;10385704;28;20202;-83
2023/12/31 01:16:49;;;;;;;8.57;3.37;;;4.60;1.00;;;;;;10385181;28;20222;-81
2023/12/31 01:22:10;;;;;;;8.90;2.80;;;4.60;99.90;;;;;;10402103;28;20231;-81
2023/12/31 01:27:32;;;;;;;9.60;2.87;;;4.50;99.90;;;;;;10420020;28;20457;-83
2023/12/31 01:32:53;;;;;;;5.70;2.50;;;4.60;99.90;;;;;;10387213;28;20224;-82
2023/12/31 01:38:15;;;;;;;5.93;2.50;;;4.60;85.30;;;;;;10398567;28;20488;-84
2023/12/31 01:43:37;;;;;;;13.73;3.03;;;4.60;99.90;;;;;;10392885;28;20233;-84
2023/12/31 01:49:00;;;;;;;7.13;3.67;;;4.60;99.90;;;;;;10424833;28;20204;-80
2023/12/31 01:54:21;;;;;;;9.03;4.40;;;4.60;1.00;;;;;;10437577;28;20316;-81
2023/12/31 01:59:43;;;;;;;11.47;3.67;;;4.60;1.00;;;;;;10410044;28;20221;-82
2023/12/31 02:05:05;;;;;;;8.10;2.97;;;4.60;1.00;;;;;;10437927;28;20204;-83
2023/12/31 02:10:26;;;;;;;8.93;3.27;;;4.60;1.00;;;;;;10384707;28;20222;-82
2023/12/31 02:15:47;;;;;;;15.27;7.27;;;4.60;1.00;;;;;;10396813;28;20238;-83
2023/12/31 02:21:14;;;;;;;14.13;5.10;;;4.60;1.00;;;;;;10388520;28;20228;-84
2023/12/31 02:26:36;;;;;;;8.10;2.97;;;4.60;1.00;;;;;;10424141;28;20203;-83
2023/12/31 02:31:57;;;;;;;10.80;3.80;;;4.60;1.00;;;;;;10423044;28;20261;-82
2023/12/31 02:37:20;;;;;;;9.23;3.40;;;4.50;1.00;;;;;;10437324;28;20198;-83
2023/12/31 02:42:42;;;;;;;7.97;3.57;;;4.50;1.00;;;;;;10422978;28;20236;-82
2023/12/31 02:48:04;;;;;;;10.10;4.20;;;4.40;99.90;;;;;;10409189;28;20209;-84
2023/12/31 02:53:25;;;;;;;9.23;4.50;;;4.40;99.90;;;;;;10401799;28;20237;-83
2023/12/31 02:58:46;;;;;;;12.63;5.87;;;4.40;99.90;;;;;;10412938;28;20203;-85
2023/12/31 03:04:08;;;;;;;12.33;5.63;;;4.30;93.50;;;;;;10381799;28;20616;-82
2023/12/31 03:09:29;;;;;;;11.50;6.07;;;4.30;99.90;;;;;;10380936;28;20200;-80
2023/12/31 03:14:50;;;;;;;19.57;8.17;;;4.20;99.90;;;;;;10380844;28;20198;-80
2023/12/31 03:20:11;;;;;;;13.73;7.20;;;4.20;1.00;;;;;;10394762;28;20296;-81
2023/12/31 03:25:32;;;;;;;17.20;6.67;;;4.20;99.90;;;;;;10437480;28;20198;-84
2023/12/31 03:30:54;;;;;;;14.83;6.70;;;4.10;1.00;;;;;;10429533;28;20311;-82
2023/12/31 03:36:16;;;;;;;11.13;6.17;;;3.90;99.90;;;;;;10415989;28;20201;-81
2023/12/31 03:41:37;;;;;;;13.90;6.47;;;3.90;99.90;;;;;;10429633;28;20224;-81
2023/12/31 03:46:58;;;;;;;9.43;6.57;;;3.90;1.00;;;;;;10444486;28;20358;-79
2023/12/31 03:52:20;;;;;;;11.43;7.23;;;3.80;1.00;;;;;;10403148;28;20497;-80
2023/12/31 03:57:41;;;;;;;11.17;6.33;;;3.80;1.00;;;;;;10388300;28;20239;-83
2023/12/31 04:03:03;;;;;;;8.27;5.37;;;3.70;1.00;;;;;;10388039;28;20230;-81
2023/12/31 04:08:25;;;;;;;9.70;5.57;;;3.60;99.90;;;;;;10401631;28;20197;-81
2023/12/31 04:13:46;;;;;;;9.57;6.17;;;3.50;1.00;;;;;;10387727;28;20275;-84
2023/12/31 04:19:07;;;;;;;9.10;5.77;;;3.40;1.00;;;;;;10387656;28;20199;-81
2023/12/31 04:24:28;;;;;;;7.53;5.60;;;3.40;1.00;;;;;;10390762;28;20222;-82
2023/12/31 04:29:50;;;;;;;7.03;5.40;;;3.30;1.00;;;;;;10439082;28;20239;-81
2023/12/31 04:35:11;;;;;;;10.97;5.70;;;3.30;99.90;;;;;;10399661;28;20205;-82
2023/12/31 04:40:33;;;;;;;10.90;6.13;;;3.20;1.00;;;;;;10386815;28;20216;-83
2023/12/31 04:45:57;;;;;;;9.73;6.30;;;3.30;1.00;;;;;;10414340;28;20206;-82
2023/12/31 04:51:29;;;;;;;9.50;5.83;;;3.30;1.00;;;;;;10421214;28;20220;-84
2023/12/31 04:56:50;;;;;;;10.10;6.23;;;3.20;1.00;;;;;;10372097;28;20261;-82
2023/12/31 05:02:11;;;;;;;11.17;6.60;;;3.10;1.00;;;;;;10386001;28;20222;-82
2023/12/31 05:07:33;;;;;;;8.73;6.70;;;3.10;1.00;;;;;;10386464;28;20192;-84
2023/12/31 05:12:54;;;;;;;10.43;7.00;;;3.10;1.00;;;;;;10399528;28;20220;-84
2023/12/31 05:18:17;;;;;;;9.03;5.83;;;3.10;1.00;;;;;;10371897;28;20202;-82
2023/12/31 05:23:39;;;;;;;12.33;6.23;;;3.10;1.00;;;;;;10388777;28;20308;-82
2023/12/31 05:29:01;;;;;;;13.87;8.67;;;3.10;1.00;;;;;;10398931;28;20201;-82
2023/12/31 05:34:22;;;;;;;9.60;6.13;;;3.10;1.00;;;;;;10434787;28;20474;-85
2023/12/31 05:39:43;;;;;;;9.87;7.43;;;3.10;1.00;;;;;;10439206;28;20268;-80
2023/12/31 05:45:06;;;;;;;7.33;5.53;;;3.20;1.00;;;;;;10438784;28;20271;-82
2023/12/31 05:50:27;;;;;;;9.00;5.93;;;3.10;1.00;;;;;;10437957;28;20231;-82
2023/12/31 05:55:48;;;;;;;9.03;7.03;;;3.10;1.00;;;;;;10411514;28;20230;-83
2023/12/31 06:01:11;;;;;;;10.60;7.03;;;3.20;1.00;;;;;;10410930;28;20233;-82
2023/12/31 06:06:35;;;;;;;12.07;8.00;;;3.20;1.00;;;;;;10397035;28;20209;-84
2023/12/31 06:11:57;;;;;;;18.47;12.33;;;3.20;1.00;;;;;;10411123;28;20194;-82
2023/12/31 06:17:18;;;;;;;15.33;9.43;;;3.20;1.00;;;;;;10400516;28;20204;-82
2023/12/31 06:22:39;;;;;;;14.40;8.43;;;3.10;1.00;;;;;;10368777;28;20415;-82
2023/12/31 06:28:01;;;;;;;16.20;10.00;;;3.20;1.00;;;;;;10391531;28;20201;-81
2023/12/31 06:33:24;;;;;;;16.80;10.60;;;3.20;1.00;;;;;;10396027;28;20518;-81
2023/12/31 06:38:45;;;;;;;23.93;14.70;;;3.20;1.00;;;;;;10395689;28;20205;-81
2023/12/31 06:44:07;;;;;;;12.07;7.53;;;3.10;1.00;;;;;;10402806;28;20233;-80
2023/12/31 06:49:28;;;;;;;15.53;8.90;;;3.10;1.00;;;;;;10401733;28;20223;-82
2023/12/31 06:54:49;;;;;;;14.90;9.17;;;3.00;1.00;;;;;;10422385;28;20416;-81
2023/12/31 07:00:11;;;;;;;15.70;8.70;;;3.00;1.00;;;;;;10435547;28;20188;-81
2023/12/31 07:05:32;;;;;;;19.23;11.57;;;3.00;1.00;;;;;;10421802;28;20205;-81
2023/12/31 07:10:55;;;;;;;13.60;11.13;;;2.90;1.00;;;;;;10421763;28;20202;-81
2023/12/31 07:16:16;;;;;;;12.07;8.13;;;2.80;25.90;;;;;;10413387;28;20538;-82
2023/12/31 07:21:38;;;;;;;14.57;9.10;;;2.80;15.50;;;;;;10394393;28;20231;-80
2023/12/31 07:26:59;;;;;;;15.40;8.67;;;2.90;1.00;;;;;;10409310;28;20192;-81
2023/12/31 07:32:22;;;;;;;12.80;7.73;;;2.90;1.00;;;;;;10415612;28;20205;-81
2023/12/31 07:37:43;;;;;;;8.83;5.60;;;2.80;1.00;;;;;;10380389;28;20198;-83
2023/12/31 07:43:05;;;;;;;8.43;5.93;;;2.60;1.00;;;;;;10383794;28;20258;-82
2023/12/31 07:48:26;;;;;;;10.87;6.13;;;2.60;1.00;;;;;;10425023;28;20206;-80
2023/12/31 07:53:48;;;;;;;7.80;5.33;;;2.70;1.00;;;;;;10421303;28;20237;-81
2023/12/31 07:59:09;;;;;;;11.67;7.00;;;2.70;1.00;;;;;;10421115;28;20200;-81
2023/12/31 08:04:31;;;;;;;12.33;7.27;;;2.70;1.00;;;;;;10406980;28;20242;-81
2023/12/31 08:09:52;;;;;;;12.57;6.80;;;2.70;1.00;;;;;;10437443;28;20197;-81
2023/12/31 08:15:13;;;;;;;12.57;7.10;;;2.60;1.00;;;;;;10427468;28;20240;-81
2023/12/31 08:20:35;;;;;;;9.43;5.97;;;2.70;1.00;;;;;;10414826;28;20213;-82
2023/12/31 08:25:56;;;;;;;10.13;6.53;;;2.80;1.00;;;;;;10406880;28;20196;-81
2023/12/31 08:31:18;;;;;;;9.57;7.10;;;2.80;1.00;;;;;;10427283;28;20212;-81
2023/12/31 08:36:39;;;;;;;10.70;6.73;;;2.80;1.00;;;;;;10441640;28;20491;-83
2023/12/31 08:42:01;;;;;;;13.47;9.77;;;2.80;1.00;;;;;;10444087;28;20228;-81
2023/12/31 08:47:22;;;;;;;10.33;6.90;;;2.90;1.00;;;;;;10439737;28;20491;-83
2023/12/31 08:52:45;;;;;;;13.63;7.30;;;2.80;1.00;;;;;;10426468;28;20207;-80
2023/12/31 08:58:06;;;;;;;10.23;6.10;;;2.80;1.00;;;;;;10427048;28;20503;-81
2023/12/31 09:03:28;;;;;;;16.93;9.67;;;2.80;1.00;;;;;;10440293;28;20295;-80
2023/12/31 09:08:49;;;;;;;15.03;8.23;;;2.80;1.00;;;;;;10412793;28;20193;-80
2023/12/31 09:14:10;;;;;;;14.47;8.47;;;2.80;1.00;;;;;;10417234;28;20224;-81
2023/12/31 09:19:32;;;;;;;17.03;10.07;;;2.90;1.00;;;;;;10432066;28;20268;-81
2023/12/31 09:24:53;;;;;;;16.23;8.67;;;2.90;1.00;;;;;;10425050;28;20227;-82
2023/12/31 09:30:14;;;;;;;29.03;13.70;;;3.00;1.00;;;;;;10398267;28;20186;-81
2023/12/31 09:35:36;;;;;;;27.80;12.23;;;2.90;1.00;;;;;;10384289;28;20204;-81
2023/12/31 09:40:57;;;;;;;19.67;9.37;;;2.90;1.00;;;;;;10384134;28;20228;-80
2023/12/31 09:46:20;;;;;;;32.03;14.17;;;2.90;1.00;;;;;;10387358;28;20498;-80
2023/12/31 09:51:42;;;;;;;95.80;42.93;;;2.90;1.00;;;;;;10422171;28;20431;-81
2023/12/31 09:57:04;;;;;;;27.53;19.67;;;2.90;99.90;;;;;;10424225;28;20256;-81
2023/12/31 10:02:26;;;;;;;27.17;19.43;;;2.80;1.00;;;;;;10410378;28;20251;-81
2023/12/31 10:07:47;;;;;;;27.87;16.93;;;2.90;1.00;;;;;;10410161;28;20196;-82
2023/12/31 10:13:18;;;;;;;29.83;20.93;;;2.80;1.00;;;;;;10406646;28;20220;-80
2023/12/31 10:18:39;;;;;;;31.23;20.20;;;2.90;1.00;;;;;;10396618;28;20273;-80
2023/12/31 10:24:01;;;;;;;40.13;31.80;;;3.00;1.00;;;;;;10397372;28;20534;-81
2023/12/31 10:29:23;;;;;;;75.33;59.50;;;3.10;1.00;;;;;;10416854;28;20204;-81
2023/12/31 10:34:44;;;;;;;88.93;65.57;;;3.20;1.00;;;;;;10395361;28;20390;-81
2023/12/31 10:40:22;;;;;;;38.90;26.70;;;3.20;1.00;;;;;;10395843;28;20250;-81
2023/12/31 10:45:43;;;;;;;33.10;20.30;;;3.30;1.00;;;;;;10399136;28;20218;-83
2023/12/31 10:51:07;;;;;;;26.10;15.43;;;3.20;1.00;;;;;;10401810;28;20212;-83
2023/12/31 10:56:29;;;;;;;27.93;17.17;;;3.30;1.00;;;;;;10381068;28;20237;-83
2023/12/31 11:01:52;;;;;;;19.00;12.23;;;3.30;1.00;;;;;;10423276;28;20295;-82
2023/12/31 11:07:20;;;;;;;23.30;12.93;;;3.20;1.00;;;;;;10409227;28;20200;-81
2023/12/31 11:12:48;;;;;;;25.57;12.93;;;3.20;1.00;;;;;;10413147;28;20234;-83
2023/12/31 11:18:51;;;;;;;17.73;11.37;;;3.10;1.00;;;;;;10397791;28;20204;-80
2023/12/31 11:24:17;;;;;;;21.13;12.63;;;3.20;1.00;;;;;;10394567;28;20540;-84
2023/12/31 11:29:38;;;;;;;23.50;13.80;;;3.30;1.00;;;;;;10444518;28;20184;-83
2023/12/31 11:35:04;;;;;;;22.80;12.13;;;3.30;1.00;;;;;;10395695;28;20252;-82
2023/12/31 11:40:25;;;;;;;25.03;14.70;;;3.30;1.00;;;;;;10380664;28;20201;-81
2023/12/31 11:45:51;;;;;;;28.23;14.43;;;3.30;1.00;;;;;;10403101;28;20210;-81
2023/12/31 11:51:15;;;;;;;23.77;14.50;;;3.50;1.00;;;;;;10409504;28;20219;-81
2023/12/31 11:56:37;;;;;;;30.97;18.47;;;3.50;1.00;;;;;;10415912;28;20230;-80
2023/12/31 12:02:01;;;;;;;31.00;18.70;;;3.50;1.00;;;;;;10387852;28;20291;-82
2023/12/31 12:07:22;;;;;;;25.57;16.00;;;3.60;1.00;;;;;;10388221;28;20202;-83
2023/12/31 12:12:43;;;;;;;34.80;20.13;;;3.50;1.00;;;;;;10393868;28;20227;-83
2023/12/31 12:18:21;;;;;;;39.03;22.23;;;3.50;1.00;;;;;;10442929;28;20379;-81
2023/12/31 12:23:42;;;;;;;40.57;24.70;;;3.50;1.00;;;;;;10441816;28;20532;-81
2023/12/31 12:29:03;;;;;;;35.70;18.80;;;3.60;1.00;;;;;;10419395;28;20200;-80
2023/12/31 12:34:27;;;;;;;36.20;19.80;;;3.60;1.00;;;;;;10456684;28;20233;-82
2023/12/31 12:39:55;;;;;;;33.37;20.40;;;3.60;1.00;;;;;;10427480;28;20192;-82
2023/12/31 12:45:16;;;;;;;46.90;27.40;;;3.60;1.00;;;;;;10400456;28;20237;-82
2023/12/31 12:50:38;;;;;;;37.23;22.20;;;3.60;1.00;;;;;;10416508;28;20385;-81
2023/12/31 12:55:59;;;;;;;37.57;21.83;;;3.60;1.00;;;;;;10439625;28;20255;-82
2023/12/31 13:01:21;;;;;;;31.83;18.13;;;3.70;1.00;;;;;;10412507;28;20275;-81
2023/12/31 13:06:42;;;;;;;28.77;17.00;;;3.60;1.00;;;;;;10426819;28;20212;-81
2023/12/31 13:12:04;;;;;;;42.00;22.30;;;3.60;1.00;;;;;;10439605;28;20236;-82
2023/12/31 13:17:26;;;;;;;35.67;19.80;;;3.60;1.00;;;;;;10404346;28;20280;-81
2023/12/31 13:22:48;;;;;;;31.67;17.50;;;3.60;1.00;;;;;;10398870;28;20218;-82
2023/12/31 13:28:09;;;;;;;33.80;17.57;;;3.60;1.00;;;;;;10386996;28;20201;-83
2023/12/31 13:33:31;;;;;;;41.83;18.90;;;3.60;1.00;;;;;;10400543;28;20207;-81
2023/12/31 13:38:52;;;;;;;47.97;21.80;;;3.60;1.00;;;;;;10414439;28;20205;-83
2023/12/31 13:44:13;;;;;;;42.70;22.47;;;3.70;1.00;;;;;;10401427;28;20260;-81
2023/12/31 13:49:36;;;;;;;42.90;23.23;;;3.60;1.00;;;;;;10419374;28;20198;-81
2023/12/31 13:54:57;;;;;;;35.27;19.50;;;3.60;1.00;;;;;;10437950;28;20237;-82
2023/12/31 14:00:19;;;;;;;43.43;19.37;;;3.50;1.00;;;;;;10424501;28;20195;-83
2023/12/31 14:05:40;;;;;;;41.53;19.63;;;3.40;1.00;;;;;;10423916;28;20421;-82
2023/12/31 14:11:02;;;;;;;51.73;26.30;;;3.50;1.00;;;;;;10423882;28;20194;-82
2023/12/31 14:16:23;;;;;;;43.60;22.70;;;3.40;1.00;;;;;;10414370;28;20255;-83
2023/12/31 14:21:45;;;;;;;43.93;23.93;;;3.40;1.00;;;;;;10369089;28;20298;-84
2023/12/31 14:27:07;;;;;;;39.77;22.90;;;3.40;1.00;;;;;;10411580;28;20205;-82
2023/12/31 14:32:28;;;;;;;45.30;24.07;;;3.30;1.00;;;;;;10416071;28;20219;-81
2023/12/31 14:37:49;;;;;;;50.00;25.70;;;3.30;1.00;;;;;;10395696;28;20190;-84
2023/12/31 14:43:11;;;;;;;46.33;25.30;;;3.40;1.00;;;;;;10395603;28;20229;-83
2023/12/31 14:48:32;;;;;;;42.70;23.73;;;3.40;1.00;;;;;;10411649;28;20217;-82
2023/12/31 14:53:54;;;;;;;44.43;23.20;;;3.30;1.00;;;;;;10422231;28;20252;-82
2023/12/31 14:59:15;;;;;;;47.13;24.93;;;3.30;1.00;;;;;;10436616;28;20219;-82
2023/12/31 15:04:36;;;;;;;41.97;24.57;;;3.30;1.00;;;;;;10436435;28;20301;-83
2023/12/31 15:09:58;;;;;;;52.47;29.27;;;3.30;1.00;;;;;;10422496;28;20275;-82
2023/12/31 15:15:19;;;;;;;48.10;26.30;;;3.30;1.00;;;;;;10433788;28;20235;-81
2023/12/31 15:20:44;;;;;;;40.17;22.47;;;3.30;1.00;;;;;;10394244;28;20577;-83
2023/12/31 15:26:06;;;;;;;43.63;23.43;;;3.20;1.00;;;;;;10401753;28;20236;-83
2023/12/31 15:31:27;;;;;;;41.43;21.77;;;3.30;1.00;;;;;;10422958;28;20530;-82
2023/12/31 15:36:49;;;;;;;42.33;25.63;;;3.20;1.00;;;;;;10380658;28;20197;-83
2023/12/31 15:42:10;;;;;;;39.00;21.43;;;3.10;1.00;;;;;;10408623;28;20216;-81
2023/12/31 15:47:31;;;;;;;39.43;23.17;;;3.10;1.00;;;;;;10402401;28;20195;-81
2023/12/31 15:52:53;;;;;;;48.30;26.20;;;3.20;1.00;;;;;;10407344;28;20224;-83
2023/12/31 15:58:14;;;;;;;93.97;45.57;;;3.10;1.00;;;;;;10421544;28;20421;-83
2023/12/31 16:03:35;;;;;;;64.23;33.63;;;3.10;1.00;;;;;;10403589;28;20239;-82
2023/12/31 16:08:56;;;;;;;73.67;35.13;;;3.10;1.00;;;;;;10394160;28;20197;-83
2023/12/31 16:14:18;;;;;;;63.87;31.33;;;3.10;1.00;;;;;;10380048;28;20284;-80
2023/12/31 16:19:39;;;;;;;66.50;34.67;;;3.10;1.00;;;;;;10393770;28;20189;-82
2023/12/31 16:25:01;;;;;;;75.90;43.03;;;3.10;1.00;;;;;;10379598;28;20279;-81
2023/12/31 16:30:22;;;;;;;67.47;36.43;;;3.20;1.00;;;;;;10393693;28;20200;-80
2023/12/31 16:35:44;;;;;;;75.97;38.70;;;3.10;5.60;;;;;;10401752;28;20201;-81
2023/12/31 16:41:06;;;;;;;67.73;33.20;;;3.10;86.10;;;;;;10400535;28;20221;-82
2023/12/31 16:46:28;;;;;;;58.47;32.93;;;3.10;34.80;;;;;;10400057;28;20244;-81
2023/12/31 16:51:49;;;;;;;66.57;35.63;;;3.10;1.90;;;;;;10418888;28;20203;-80
2023/12/31 16:57:10;;;;;;;53.07;30.43;;;3.10;84.60;;;;;;10412810;28;20339;-80
2023/12/31 17:02:32;;;;;;;61.50;32.90;;;3.10;80.10;;;;;;10416587;28;20247;-81
2023/12/31 17:07:53;;;;;;;62.43;32.57;;;3.00;99.90;;;;;;10399513;28;20199;-84
2023/12/31 17:13:14;;;;;;;57.43;31.30;;;3.10;99.90;;;;;;10385364;28;20211;-84
2023/12/31 17:18:35;;;;;;;66.03;33.03;;;3.10;99.90;;;;;;10385130;28;20204;-82
2023/12/31 17:23:57;;;;;;;61.50;30.53;;;3.10;96.30;;;;;;10399416;28;20275;-82
2023/12/31 17:29:18;;;;;;;57.27;30.27;;;3.10;81.00;;;;;;10431722;28;20204;-81
2023/12/31 17:34:40;;;;;;;54.73;29.13;;;3.10;46.40;;;;;;10438018;28;20489;-82
2023/12/31 17:40:03;;;;;;;58.30;30.53;;;3.10;71.10;;;;;;10425361;28;20203;-80
2023/12/31 17:45:25;;;;;;;56.80;29.93;;;3.10;94.00;;;;;;10438512;28;20365;-84
2023/12/31 17:50:46;;;;;;;63.30;32.10;;;3.10;33.20;;;;;;10438980;28;20514;-81
2023/12/31 17:56:08;;;;;;;62.87;30.87;;;3.10;83.10;;;;;;10424746;28;20267;-82
2023/12/31 18:01:29;;;;;;;56.17;29.47;;;3.10;91.40;;;;;;10420871;28;20361;-81
2023/12/31 18:06:50;;;;;;;59.87;29.43;;;3.20;7.80;;;;;;10397246;28;20255;-81
2023/12/31 18:12:12;;;;;;;61.73;30.27;;;3.10;19.20;;;;;;10369448;28;20399;-81
2023/12/31 18:17:33;;;;;;;60.83;30.03;;;3.20;1.00;;;;;;10411050;28;20193;-81
2023/12/31 18:22:54;;;;;;;61.27;29.80;;;3.10;1.00;;;;;;10383019;28;20259;-82
2023/12/31 18:28:16;;;;;;;55.10;28.53;;;3.10;1.00;;;;;;10406900;28;20222;-81
2023/12/31 18:33:37;;;;;;;52.30;29.83;;;3.10;1.00;;;;;;10422574;28;20212;-83
2023/12/31 18:38:59;;;;;;;54.77;28.23;;;3.20;1.00;;;;;;10437393;28;20195;-84
2023/12/31 18:44:20;;;;;;;51.40;27.50;;;3.20;1.00;;;;;;10436634;28;20231;-84
2023/12/31 18:49:48;;;;;;;53.10;28.40;;;3.20;1.00;;;;;;10409153;28;20465;-85
2023/12/31 18:55:09;;;;;;;52.50;29.13;;;3.20;1.00;;;;;;10421490;28;20260;-82
2023/12/31 19:00:30;;;;;;;49.73;28.47;;;3.20;1.00;;;;;;10422476;28;20360;-84
2023/12/31 19:05:52;;;;;;;52.20;28.53;;;3.20;1.00;;;;;;10368467;28;20237;-85
2023/12/31 19:11:14;;;;;;;50.17;28.00;;;3.20;1.00;;;;;;10395981;28;20209;-85
2023/12/31 19:16:36;;;;;;;52.53;29.60;;;3.10;1.00;;;;;;10367951;28;20200;-84
2023/12/31 19:21:57;;;;;;;51.70;30.10;;;3.20;1.00;;;;;;10395786;28;20217;-84
2023/12/31 19:27:19;;;;;;;55.53;29.67;;;3.20;1.00;;;;;;10398141;28;20207;-84
2023/12/31 19:32:43;;;;;;;53.03;29.33;;;3.20;1.00;;;;;;10435594;28;20197;-84
2023/12/31 19:38:05;;;;;;;52.57;31.00;;;3.20;1.00;;;;;;10436168;28;20384;-85
2023/12/31 19:43:28;;;;;;;65.63;32.90;;;3.20;1.00;;;;;;10421785;28;20228;-84
2023/12/31 19:48:49;;;;;;;55.80;31.53;;;3.20;1.00;;;;;;10420825;28;20208;-85
2023/12/31 19:54:10;;;;;;;57.77;32.23;;;3.20;1.00;;;;;;10417306;28;20232;-85
2023/12/31 19:59:32;;;;;;;57.80;32.30;;;3.20;1.00;;;;;;10421913;28;20224;-83
2023/12/31 20:04:53;;;;;;;51.10;31.57;;;3.20;1.00;;;;;;10421526;28;20525;-84
2023/12/31 20:10:20;;;;;;;57.73;32.43;;;3.10;1.00;;;;;;10429052;28;20226;-85
2023/12/31 20:15:41;;;;;;;51.97;30.70;;;3.10;1.00;;;;;;10429231;28;20200;-84
2023/12/31 20:21:04;;;;;;;64.20;34.73;;;3.10;1.00;;;;;;10415221;28;20270;-85
2023/12/31 20:26:25;;;;;;;54.40;31.50;;;3.10;1.00;;;;;;10442023;28;20237;-82
2023/12/31 20:31:46;;;;;;;55.27;32.47;;;3.10;1.00;;;;;;10441667;28;20200;-84
2023/12/31 20:37:09;;;;;;;61.50;34.57;;;3.10;1.00;;;;;;10442432;28;20192;-84
2023/12/31 20:42:31;;;;;;;60.70;33.43;;;3.00;1.00;;;;;;10427761;28;20220;-83
2023/12/31 20:47:53;;;;;;;62.53;35.17;;;3.00;33.20;;;;;;10406270;28;20233;-82
2023/12/31 20:53:16;;;;;;;66.57;33.93;;;3.00;1.00;;;;;;10414969;28;20224;-83
2023/12/31 20:58:38;;;;;;;62.60;35.67;;;3.00;1.00;;;;;;10413108;28;20257;-81
2023/12/31 21:03:59;;;;;;;66.67;34.30;;;3.00;1.00;;;;;;10399013;28;20224;-81
2023/12/31 21:09:20;;;;;;;67.10;34.60;;;3.10;1.00;;;;;;10385771;28;20201;-81
2023/12/31 21:14:41;;;;;;;64.17;35.47;;;3.10;1.00;;;;;;10385589;28;20492;-81
2023/12/31 21:20:03;;;;;;;61.07;33.50;;;3.10;1.00;;;;;;10398272;28;20196;-83
2023/12/31 21:25:25;;;;;;;52.53;31.10;;;3.10;1.00;;;;;;10386003;28;20356;-81
2023/12/31 21:30:46;;;;;;;54.93;29.93;;;3.10;1.00;;;;;;10437225;28;20196;-84
2023/12/31 21:36:08;;;;;;;52.80;30.27;;;3.10;1.00;;;;;;10411924;28;20197;-82
2023/12/31 21:41:29;;;;;;;54.67;31.00;;;3.10;1.00;;;;;;10384613;28;20425;-85
2023/12/31 21:46:50;;;;;;;52.97;29.13;;;3.20;1.00;;;;;;10384790;28;20236;-85
2023/12/31 21:52:12;;;;;;;54.77;28.47;;;3.10;1.00;;;;;;10422579;28;20185;-83
2023/12/31 21:57:33;;;;;;;53.13;29.90;;;3.10;1.00;;;;;;10424913;28;20246;-82
2023/12/31 22:02:55;;;;;;;49.47;25.63;;;3.10;1.00;;;;;;10387792;28;20240;-81
2023/12/31 22:08:17;;;;;;;45.40;25.30;;;3.10;1.00;;;;;;10413846;28;20197;-82
2023/12/31 22:13:40;;;;;;;45.60;25.00;;;3.10;1.00;;;;;;10438320;28;20195;-81
2023/12/31 22:19:02;;;;;;;50.17;25.83;;;3.10;1.00;;;;;;10423644;28;20198;-82
2023/12/31 22:24:23;;;;;;;46.50;24.97;;;3.10;1.00;;;;;;10423457;28;20228;-83
2023/12/31 22:29:45;;;;;;;42.70;25.33;;;3.00;1.00;;;;;;10396440;28;20204;-83
2023/12/31 22:35:07;;;;;;;48.77;26.90;;;3.10;1.00;;;;;;10409110;28;20209;-83
2023/12/31 22:40:30;;;;;;;49.30;26.13;;;3.00;1.00;;;;;;10423283;28;20203;-83
2023/12/31 22:45:51;;;;;;;47.67;26.33;;;3.00;1.00;;;;;;10422673;28;20243;-82
2023/12/31 22:51:13;;;;;;;43.50;26.30;;;3.00;1.00;;;;;;10381416;28;20259;-84
2023/12/31 22:56:34;;;;;;;45.13;24.77;;;3.10;1.00;;;;;;10438971;28;20277;-82
2023/12/31 23:01:55;;;;;;;59.03;36.57;;;3.10;1.00;;;;;;10405269;28;20237;-84
2023/12/31 23:07:18;;;;;;;58.97;36.33;;;3.20;1.00;;;;;;10392957;28;20226;-84
2023/12/31 23:12:39;;;;;;;64.87;41.30;;;3.20;1.00;;;;;;10419063;28;20268;-82
2023/12/31 23:18:01;;;;;;;59.07;34.80;;;3.30;1.00;;;;;;10380731;28;20539;-81
2023/12/31 23:23:23;;;;;;;52.37;29.73;;;3.30;1.00;;;;;;10380884;28;20225;-82
2023/12/31 23:28:44;;;;;;;51.23;28.80;;;3.20;1.00;;;;;;10409675;28;20192;-81
2023/12/31 23:34:05;;;;;;;52.60;30.13;;;3.10;1.00;;;;;;10421337;28;20290;-82
2023/12/31 23:39:27;;;;;;;48.80;28.13;;;3.10;1.00;;;;;;10435648;28;20200;-82
2023/12/31 23:44:48;;;;;;;51.00;26.80;;;3.10;1.00;;;;;;10423787;28;20237;-82
2023/12/31 23:50:10;;;;;;;49.10;26.83;;;3.10;1.00;;;;;;10414613;28;20200;-81
2023/12/31 23:55:34;;;;;;;54.33;28.37;;;3.10;1.00;;;;;;10415272;28;20231;-81
